Bugtown, Indiana
Current Conditions -  °F | °C
As of 10:15 PM on Tuesday 25 Nov 2014 (Local Time) from KCUL Reporting Station
Clear Clear  
Wind Chill: 26°   Ceiling: Unl
Heat Index: 26°   Visibility: 10mi
Dew Point: 25°   Wind: 0mph
Humidity: 98%   Direction: NA
Pressure: 30.2"   Gusts: NA
Location:  38.1775°N, 87.8268°W
Report Text: KCUL 260415Z AUTO 00000KT 10SM CLR M03/M04 A3020 RMK AO2 T10341037
Loading
Personal Weather Stations






























Interactive Weather Map New forecast layout! Learn more

10-Day Weather Forecast

Advertisements
Track Severe Weather on mobile